createdAt,value
2023-01-02T00:01:02.629Z,13.30
2023-01-02T00:03:32.202Z,13.20
2023-01-02T00:06:02.672Z,13.20
2023-01-02T00:08:29.596Z,13.20
2023-01-02T00:10:57.269Z,13.20
2023-01-02T00:13:24.218Z,13.20
2023-01-02T00:15:51.104Z,13.20
2023-01-02T00:18:18.383Z,13.20
2023-01-02T00:20:45.195Z,13.20
2023-01-02T00:23:12.018Z,13.20
2023-01-02T00:25:38.940Z,13.20
2023-01-02T00:28:05.769Z,13.20
2023-01-02T00:30:38.184Z,13.20
2023-01-02T00:33:06.794Z,13.20
2023-01-02T00:35:33.868Z,13.20
2023-01-02T00:38:00.725Z,13.20
2023-01-02T00:40:29.775Z,13.20
2023-01-02T00:42:58.874Z,13.20
2023-01-02T00:45:25.814Z,13.20
2023-01-02T00:47:55.137Z,13.20
2023-01-02T00:50:22.258Z,13.20
2023-01-02T00:52:49.146Z,13.20
2023-01-02T00:55:16.800Z,13.20
2023-01-02T00:57:43.615Z,13.20
2023-01-02T01:00:16.972Z,13.20
2023-01-02T01:02:47.002Z,13.20
2023-01-02T01:05:13.931Z,13.20
2023-01-02T01:07:40.798Z,13.20
2023-01-02T01:10:08.113Z,13.20
2023-01-02T01:12:37.325Z,13.20
2023-01-02T01:15:07.486Z,13.20
2023-01-02T01:17:34.371Z,13.20
2023-01-02T01:20:01.266Z,13.20
2023-01-02T01:22:30.631Z,13.20
2023-01-02T01:25:00.256Z,13.20
2023-01-02T01:27:27.070Z,13.20
2023-01-02T01:29:53.954Z,13.20
2023-01-02T01:32:20.790Z,13.20
2023-01-02T01:34:47.767Z,13.20
2023-01-02T01:37:19.203Z,13.20
2023-01-02T01:39:46.017Z,13.20
2023-01-02T01:42:16.338Z,13.20
2023-01-02T01:44:50.143Z,13.20
2023-01-02T01:47:31.857Z,13.10
2023-01-02T01:50:14.979Z,13.20
2023-01-02T01:52:52.515Z,13.20
2023-01-02T01:55:30.926Z,13.20
2023-01-02T01:58:20.964Z,13.10
2023-01-02T02:00:54.428Z,13.10
2023-01-02T02:03:25.465Z,13.10
2023-01-02T02:05:52.493Z,13.10
2023-01-02T02:08:27.923Z,13.10
2023-01-02T02:11:00.403Z,13.20
2023-01-02T02:13:29.133Z,13.10
2023-01-02T02:16:16.552Z,13.20
2023-01-02T02:19:12.390Z,13.20
2023-01-02T02:22:00.914Z,13.20
2023-01-02T02:24:30.526Z,13.20
2023-01-02T02:27:11.175Z,13.20
2023-01-02T02:30:19.371Z,13.20
2023-01-02T02:33:24.720Z,13.20
2023-01-02T02:36:27.261Z,13.20
2023-01-02T02:39:00.784Z,13.20
2023-01-02T02:41:55.506Z,13.20
2023-01-02T02:44:22.533Z,13.20
2023-01-02T02:47:07.393Z,13.20
2023-01-02T02:49:52.389Z,13.20
2023-01-02T02:52:40.377Z,13.20
2023-01-02T02:55:29.797Z,13.20
2023-01-02T02:57:57.739Z,13.20
2023-01-02T03:00:26.726Z,13.30
2023-01-02T03:02:53.792Z,13.30
2023-01-02T03:05:28.772Z,13.30
2023-01-02T03:08:01.352Z,13.30
2023-01-02T03:10:36.628Z,13.30
2023-01-02T03:13:20.826Z,13.30
2023-01-02T03:15:53.103Z,13.30
2023-01-02T03:18:53.312Z,13.30
2023-01-02T03:21:27.942Z,13.30
2023-01-02T03:24:02.346Z,13.30
2023-01-02T03:26:32.783Z,13.30
2023-01-02T03:29:06.788Z,13.30
2023-01-02T03:31:39.244Z,13.40
2023-01-02T03:34:14.100Z,13.40
2023-01-02T03:36:44.892Z,13.40
2023-01-02T03:39:18.024Z,13.40
2023-01-02T03:41:53.021Z,13.40
2023-01-02T03:44:24.160Z,13.30
2023-01-02T03:47:24.694Z,13.40
2023-01-02T03:49:56.971Z,13.40
2023-01-02T03:52:26.136Z,13.40
2023-01-02T03:54:55.480Z,13.40
2023-01-02T03:57:27.281Z,13.40
2023-01-02T04:00:12.423Z,13.40
2023-01-02T04:02:54.410Z,13.40
2023-01-02T04:05:50.813Z,13.40
2023-01-02T04:08:29.749Z,13.40
2023-01-02T04:10:59.794Z,13.40
2023-01-02T04:13:58.959Z,13.30
2023-01-02T04:16:30.815Z,13.40
2023-01-02T04:19:05.495Z,13.40
2023-01-02T04:21:37.859Z,13.40
2023-01-02T04:24:27.859Z,13.40
2023-01-02T04:27:07.669Z,13.40
2023-01-02T04:29:34.671Z,13.40
2023-01-02T04:32:43.344Z,13.40
2023-01-02T04:35:16.708Z,13.40
2023-01-02T04:37:44.658Z,13.40
2023-01-02T04:40:17.349Z,13.40
2023-01-02T04:42:45.378Z,13.50
2023-01-02T04:45:15.950Z,13.50
2023-01-02T04:47:43.224Z,13.50
2023-01-02T04:50:11.000Z,13.50
2023-01-02T04:52:37.860Z,13.50
2023-01-02T04:55:08.189Z,13.50
2023-01-02T04:57:35.785Z,13.50
2023-01-02T05:00:03.683Z,13.50
2023-01-02T05:02:40.429Z,13.50
2023-01-02T05:05:10.930Z,13.50
2023-01-02T05:07:38.245Z,13.60
2023-01-02T05:10:07.797Z,13.60
2023-01-02T05:12:36.140Z,13.60
2023-01-02T05:15:09.574Z,13.60
2023-01-02T05:17:38.124Z,13.60
2023-01-02T05:20:07.700Z,13.60
2023-01-02T05:22:57.201Z,13.60
2023-01-02T05:25:27.749Z,13.60
2023-01-02T05:27:56.733Z,13.60
2023-01-02T05:30:25.534Z,13.60
2023-01-02T05:32:53.583Z,13.60
2023-01-02T05:35:27.092Z,13.60
2023-01-02T05:38:01.429Z,13.60
2023-01-02T05:40:30.876Z,13.60
2023-01-02T05:43:00.347Z,13.60
2023-01-02T05:45:27.258Z,13.60
2023-01-02T05:47:54.158Z,13.60
2023-01-02T05:50:21.055Z,13.60
2023-01-02T05:52:53.274Z,13.60
2023-01-02T05:55:20.098Z,13.60
2023-01-02T05:57:49.111Z,13.60
2023-01-02T06:00:18.646Z,13.60
2023-01-02T06:02:48.263Z,13.60
2023-01-02T06:05:18.614Z,13.60
2023-01-02T06:07:45.494Z,13.60
2023-01-02T06:10:12.379Z,13.60
2023-01-02T06:12:41.789Z,13.70
2023-01-02T06:15:11.571Z,13.60
2023-01-02T06:17:38.477Z,13.70
2023-01-02T06:20:06.019Z,13.70
2023-01-02T06:22:40.139Z,13.70
2023-01-02T06:25:09.653Z,13.70
2023-01-02T06:27:36.531Z,13.70
2023-01-02T06:30:03.662Z,13.70
2023-01-02T06:32:30.477Z,13.70
2023-01-02T06:34:57.335Z,13.70
2023-01-02T06:37:24.236Z,13.70
2023-01-02T06:39:51.076Z,13.70
2023-01-02T06:42:20.152Z,13.80
2023-01-02T06:44:47.007Z,13.80
2023-01-02T06:47:13.891Z,13.80
2023-01-02T06:49:40.696Z,13.80
2023-01-02T06:52:09.795Z,13.80
2023-01-02T06:54:38.779Z,13.80
2023-01-02T06:57:10.420Z,13.80
2023-01-02T06:59:37.550Z,13.90
2023-01-02T07:02:04.470Z,13.80
2023-01-02T07:04:31.918Z,13.90
2023-01-02T07:06:58.783Z,13.90
2023-01-02T07:09:25.645Z,13.90
2023-01-02T07:11:54.693Z,13.90
2023-01-02T07:14:21.610Z,13.90
2023-01-02T07:16:48.466Z,13.90
2023-01-02T07:19:17.546Z,13.90
2023-01-02T07:21:46.828Z,13.90
2023-01-02T07:24:16.135Z,13.90
2023-01-02T07:26:43.026Z,13.90
2023-01-02T07:29:13.057Z,13.90
2023-01-02T07:31:39.895Z,14.00
2023-01-02T07:34:09.236Z,13.90
2023-01-02T07:36:38.344Z,13.90
2023-01-02T07:39:05.238Z,14.00
2023-01-02T07:41:32.129Z,13.90
2023-01-02T07:43:58.982Z,14.00
2023-01-02T07:46:28.418Z,14.00
2023-01-02T07:48:55.309Z,14.00
2023-01-02T07:51:26.965Z,14.00
2023-01-02T07:53:55.971Z,14.00
2023-01-02T07:56:22.852Z,14.00
2023-01-02T07:58:50.350Z,14.00
2023-01-02T08:01:17.318Z,13.90
2023-01-02T08:03:44.267Z,14.00
2023-01-02T08:06:15.931Z,14.10
2023-01-02T08:08:43.530Z,14.10
2023-01-02T08:11:21.289Z,14.10
2023-01-02T08:13:51.015Z,14.10
2023-01-02T08:16:20.494Z,14.10
2023-01-02T08:18:47.864Z,14.20
2023-01-02T08:21:17.036Z,14.20
2023-01-02T08:23:46.049Z,14.20
2023-01-02T08:26:12.901Z,14.20
2023-01-02T08:28:40.940Z,14.20
2023-01-02T08:31:13.679Z,14.20
2023-01-02T08:33:41.470Z,14.20
2023-01-02T08:36:14.875Z,14.20
2023-01-02T08:38:44.455Z,14.30
2023-01-02T08:41:11.486Z,14.30
2023-01-02T08:43:38.700Z,14.30
2023-01-02T08:46:07.156Z,14.30
2023-01-02T08:48:34.724Z,14.30
2023-01-02T08:51:04.897Z,14.40
2023-01-02T08:53:31.903Z,14.40
2023-01-02T08:56:17.469Z,14.40
2023-01-02T08:58:50.431Z,14.50
2023-01-02T09:01:22.894Z,14.50
2023-01-02T09:03:52.734Z,14.50
2023-01-02T09:06:22.250Z,14.50
2023-01-02T09:08:52.202Z,14.50
2023-01-02T09:11:29.765Z,14.50
2023-01-02T09:13:58.105Z,14.50
2023-01-02T09:16:27.629Z,14.60
2023-01-02T09:18:59.722Z,14.60
2023-01-02T09:21:28.697Z,14.70
2023-01-02T09:23:55.601Z,14.70
2023-01-02T09:26:22.413Z,14.70
2023-01-02T09:28:49.356Z,14.70
2023-01-02T09:31:17.667Z,14.80
2023-01-02T09:33:46.507Z,14.80
2023-01-02T09:36:15.509Z,14.80
2023-01-02T09:38:42.731Z,14.80
2023-01-02T09:41:33.272Z,14.80
2023-01-02T09:44:11.183Z,14.90
2023-01-02T09:46:50.222Z,14.90
2023-01-02T09:49:29.065Z,15.00
2023-01-02T09:51:55.987Z,15.00
2023-01-02T09:54:30.380Z,15.00
2023-01-02T09:57:18.881Z,15.00
2023-01-02T10:00:04.083Z,15.00
2023-01-02T10:03:12.441Z,15.10
2023-01-02T10:05:45.329Z,15.10
2023-01-02T10:08:37.510Z,15.10
2023-01-02T10:11:21.244Z,15.10
2023-01-02T10:14:21.890Z,15.20
2023-01-02T10:16:48.695Z,15.20
2023-01-02T10:19:28.023Z,15.20
2023-01-02T10:21:59.906Z,15.30
2023-01-02T10:24:43.944Z,15.30
2023-01-02T10:27:29.937Z,15.30
2023-01-02T10:30:21.178Z,15.30
2023-01-02T10:33:00.459Z,15.30
2023-01-02T10:35:47.679Z,15.30
2023-01-02T10:38:18.200Z,15.30
2023-01-02T10:40:47.489Z,15.30
2023-01-02T10:43:17.829Z,15.30
2023-01-02T10:45:46.971Z,15.30
2023-01-02T10:48:15.207Z,15.30
2023-01-02T10:50:47.951Z,15.30
2023-01-02T10:53:22.835Z,15.30
2023-01-02T10:55:50.138Z,15.30
2023-01-02T10:58:16.901Z,15.30
2023-01-02T11:00:46.459Z,15.30
2023-01-02T11:03:26.080Z,15.30
2023-01-02T11:05:55.414Z,15.30
2023-01-02T11:08:36.020Z,15.30
2023-01-02T11:11:13.700Z,15.30
2023-01-02T11:13:54.286Z,15.30
2023-01-02T11:16:25.414Z,15.30
2023-01-02T11:18:58.404Z,15.30
2023-01-02T11:21:35.645Z,15.20
2023-01-02T11:24:19.642Z,15.20
2023-01-02T11:26:49.494Z,15.20
2023-01-02T11:29:36.996Z,15.20
2023-01-02T11:32:04.355Z,15.20
2023-01-02T11:34:38.194Z,15.20
2023-01-02T11:37:16.278Z,15.20
2023-01-02T11:39:56.785Z,15.10
2023-01-02T11:43:05.610Z,15.10
2023-01-02T11:45:33.800Z,15.10
2023-01-02T11:48:07.745Z,15.10
2023-01-02T11:50:36.675Z,15.10
2023-01-02T11:53:12.663Z,15.20
2023-01-02T11:56:01.499Z,15.20
2023-01-02T11:58:37.526Z,15.20
2023-01-02T12:01:32.189Z,15.20
2023-01-02T12:04:00.169Z,15.20
2023-01-02T12:06:58.166Z,15.20
2023-01-02T12:09:50.268Z,15.20
2023-01-02T12:12:35.691Z,15.20
2023-01-02T12:15:10.064Z,15.20
2023-01-02T12:17:47.818Z,15.20
2023-01-02T12:20:41.190Z,15.20
2023-01-02T12:23:19.683Z,15.20
2023-01-02T12:26:09.639Z,15.20
2023-01-02T12:28:55.605Z,15.20
2023-01-02T12:31:49.405Z,15.10
2023-01-02T12:34:31.627Z,15.10
2023-01-02T12:37:27.084Z,15.10
2023-01-02T12:40:19.112Z,15.00
2023-01-02T12:43:04.950Z,15.00
2023-01-02T12:45:53.443Z,15.00
2023-01-02T12:48:52.126Z,15.00
2023-01-02T12:51:46.995Z,15.00
2023-01-02T12:54:37.622Z,15.00
2023-01-02T12:57:27.686Z,14.90
2023-01-02T13:00:26.164Z,14.90
2023-01-02T13:03:31.365Z,14.90
2023-01-02T13:06:45.849Z,14.80
2023-01-02T13:09:10.713Z,14.80
2023-01-02T13:12:20.532Z,14.80
2023-01-02T13:15:23.336Z,14.80
2023-01-02T13:17:50.291Z,14.80
2023-01-02T13:20:20.320Z,14.80
2023-01-02T13:23:05.961Z,14.90
2023-01-02T13:25:33.711Z,14.90
2023-01-02T13:28:07.860Z,14.90
2023-01-02T13:30:39.345Z,14.90
2023-01-02T13:33:34.851Z,14.90
2023-01-02T13:36:17.434Z,14.90
2023-01-02T13:38:47.804Z,14.90
2023-01-02T13:41:19.445Z,14.90
2023-01-02T13:43:59.735Z,14.90
2023-01-02T13:47:02.594Z,14.90
2023-01-02T13:49:26.328Z,14.90
2023-01-02T13:52:00.597Z,14.80
2023-01-02T13:54:36.569Z,14.80
2023-01-02T13:57:37.738Z,14.90
2023-01-02T14:00:33.697Z,14.80
2023-01-02T14:03:21.734Z,14.90
2023-01-02T14:06:00.607Z,14.90
2023-01-02T14:08:31.101Z,14.90
2023-01-02T14:11:10.009Z,14.90
2023-01-02T14:13:55.906Z,14.90
2023-01-02T14:16:22.862Z,14.90
2023-01-02T14:19:14.389Z,14.90
2023-01-02T14:21:59.781Z,14.90
2023-01-02T14:24:38.737Z,14.90
2023-01-02T14:27:07.178Z,14.90
2023-01-02T14:29:53.542Z,14.90
2023-01-02T14:32:47.696Z,14.90
2023-01-02T14:35:14.571Z,14.90
2023-01-02T14:37:44.013Z,14.90
2023-01-02T14:40:22.211Z,14.90
2023-01-02T14:43:13.891Z,14.90
2023-01-02T14:45:48.810Z,14.90
2023-01-02T14:48:22.968Z,14.90
2023-01-02T14:50:57.511Z,14.90
2023-01-02T14:53:33.219Z,14.90
2023-01-02T14:56:11.732Z,15.00
2023-01-02T14:58:47.074Z,15.00
2023-01-02T15:01:43.937Z,15.00
2023-01-02T15:04:16.927Z,15.00
2023-01-02T15:06:46.966Z,15.00
2023-01-02T15:09:42.740Z,15.00
2023-01-02T15:12:53.201Z,15.00
2023-01-02T15:15:28.194Z,15.00
2023-01-02T15:18:02.459Z,14.90
2023-01-02T15:20:34.309Z,15.00
2023-01-02T15:23:01.397Z,15.00
2023-01-02T15:25:31.277Z,15.00
2023-01-02T15:27:58.261Z,14.90
2023-01-02T15:30:33.408Z,15.00
2023-01-02T15:33:00.512Z,14.90
2023-01-02T15:35:31.031Z,14.90
2023-01-02T15:37:57.993Z,14.90
2023-01-02T15:40:28.987Z,14.90
2023-01-02T15:43:16.559Z,14.90
2023-01-02T15:45:47.294Z,14.80
2023-01-02T15:48:15.312Z,14.70
2023-01-02T15:50:42.924Z,14.70
2023-01-02T15:53:17.719Z,14.70
2023-01-02T15:55:44.646Z,14.70
2023-01-02T15:58:17.478Z,14.60
2023-01-02T16:00:46.874Z,14.60
2023-01-02T16:04:01.344Z,14.60
2023-01-02T16:06:42.912Z,14.50
2023-01-02T16:09:23.593Z,14.60
2023-01-02T16:11:54.438Z,14.50
2023-01-02T16:14:36.338Z,14.50
2023-01-02T16:17:21.274Z,14.50
2023-01-02T16:19:58.234Z,14.40
2023-01-02T16:22:40.597Z,14.30
2023-01-02T16:25:10.371Z,14.30
2023-01-02T16:27:49.033Z,14.30
2023-01-02T16:30:42.828Z,14.30
2023-01-02T16:33:27.559Z,14.20
2023-01-02T16:36:07.696Z,14.20
2023-01-02T16:38:55.958Z,14.20
2023-01-02T16:41:36.845Z,14.20
2023-01-02T16:44:16.249Z,14.10
2023-01-02T16:46:52.191Z,14.10
2023-01-02T16:49:24.793Z,14.10
2023-01-02T16:51:53.821Z,14.00
2023-01-02T16:54:21.141Z,14.10
2023-01-02T16:56:49.821Z,14.00
2023-01-02T16:59:16.766Z,14.00
2023-01-02T17:01:43.775Z,13.90
2023-01-02T17:04:14.507Z,13.90
2023-01-02T17:06:41.426Z,13.90
2023-01-02T17:09:08.286Z,13.80
2023-01-02T17:11:37.719Z,13.80
2023-01-02T17:14:04.654Z,13.70
2023-01-02T17:16:31.688Z,13.70
2023-01-02T17:18:59.150Z,13.60
2023-01-02T17:21:32.362Z,13.60
2023-01-02T17:23:59.868Z,13.50
2023-01-02T17:26:28.967Z,13.50
2023-01-02T17:28:58.180Z,13.40
2023-01-02T17:31:26.215Z,13.40
2023-01-02T17:33:56.529Z,13.40
2023-01-02T17:36:23.367Z,13.40
2023-01-02T17:38:50.345Z,13.30
2023-01-02T17:41:18.099Z,13.30
2023-01-02T17:44:02.127Z,13.30
2023-01-02T17:49:18.922Z,13.30
2023-01-02T17:51:46.015Z,13.20
2023-01-02T17:54:13.494Z,13.20
2023-01-02T17:56:41.914Z,13.20
2023-01-02T17:59:09.135Z,13.20
2023-01-02T18:01:36.409Z,13.10
2023-01-02T18:04:03.615Z,13.10
2023-01-02T18:06:30.896Z,13.00
2023-01-02T18:08:58.154Z,13.00
2023-01-02T18:11:26.236Z,13.00
2023-01-02T18:13:55.180Z,13.00
2023-01-02T18:16:27.047Z,13.00
2023-01-02T18:18:56.287Z,13.00
2023-01-02T18:21:26.352Z,12.90
2023-01-02T18:23:57.067Z,12.90
2023-01-02T18:26:25.527Z,12.90
2023-01-02T18:29:02.942Z,13.00
2023-01-02T18:31:41.741Z,12.90
2023-01-02T18:37:26.118Z,12.90
2023-01-02T18:39:54.974Z,12.90
2023-01-02T18:42:26.638Z,12.90
2023-01-02T18:45:00.829Z,12.80
2023-01-02T18:47:35.324Z,12.80
2023-01-02T18:50:21.591Z,12.80
2023-01-02T18:52:53.130Z,12.80
2023-01-02T18:55:33.016Z,12.80
2023-01-02T18:58:09.828Z,12.80
2023-01-02T19:00:39.841Z,12.80
2023-01-02T19:03:12.534Z,12.80
2023-01-02T19:05:45.846Z,12.80
2023-01-02T19:08:34.843Z,12.80
2023-01-02T19:11:40.383Z,12.80
2023-01-02T19:14:24.062Z,12.80
2023-01-02T19:17:09.029Z,12.80
2023-01-02T19:19:40.590Z,12.70
2023-01-02T19:22:16.947Z,12.70
2023-01-02T19:24:44.258Z,12.70
2023-01-02T19:27:37.053Z,12.70
2023-01-02T19:30:30.921Z,12.60
2023-01-02T19:32:58.254Z,12.60
2023-01-02T19:35:25.144Z,12.60
2023-01-02T19:37:52.110Z,12.60
2023-01-02T19:40:22.220Z,12.50
2023-01-02T19:42:50.804Z,12.50
2023-01-02T19:45:19.046Z,12.50
2023-01-02T19:47:46.811Z,12.50
2023-01-02T19:50:16.397Z,12.50
2023-01-02T19:52:43.571Z,12.40
2023-01-02T19:55:11.470Z,12.40
2023-01-02T19:57:38.374Z,12.30
2023-01-02T20:00:08.100Z,12.30
2023-01-02T20:02:42.691Z,12.30
2023-01-02T20:05:20.735Z,12.30
2023-01-02T20:07:49.308Z,12.30
2023-01-02T20:10:16.234Z,12.30
2023-01-02T20:12:45.483Z,12.30
2023-01-02T20:15:18.656Z,12.30
2023-01-02T20:17:51.772Z,12.30
2023-01-02T20:20:19.957Z,12.30
2023-01-02T20:22:47.750Z,12.30
2023-01-02T20:25:15.976Z,12.20
2023-01-02T20:27:45.363Z,12.20
2023-01-02T20:30:14.572Z,12.20
2023-01-02T20:32:44.771Z,12.20
2023-01-02T20:35:11.947Z,12.20
2023-01-02T20:37:41.365Z,12.10
2023-01-02T20:40:11.187Z,12.10
2023-01-02T20:42:40.363Z,12.10
2023-01-02T20:45:07.874Z,12.10
2023-01-02T20:47:36.278Z,12.00
2023-01-02T20:50:04.700Z,12.00
2023-01-02T20:52:31.630Z,12.00
2023-01-02T20:54:59.348Z,11.90
2023-01-02T20:57:26.188Z,11.90
2023-01-02T20:59:53.216Z,11.90
2023-01-02T21:02:20.365Z,11.90
2023-01-02T21:04:47.427Z,11.80
2023-01-02T21:07:14.245Z,11.80
2023-01-02T21:09:43.604Z,11.80
2023-01-02T21:12:31.737Z,11.80
2023-01-02T21:15:00.920Z,11.80
2023-01-02T21:17:30.013Z,11.80
2023-01-02T21:19:56.851Z,11.70
2023-01-02T21:22:28.326Z,11.70
2023-01-02T21:24:57.352Z,11.70
2023-01-02T21:27:24.198Z,11.70
2023-01-02T21:29:51.051Z,11.70
2023-01-02T21:32:18.127Z,11.70
2023-01-02T21:34:44.978Z,11.70
2023-01-02T21:37:11.969Z,11.60
2023-01-02T21:39:38.805Z,11.70
2023-01-02T21:42:17.530Z,11.70
2023-01-02T21:44:47.172Z,11.70
2023-01-02T21:47:20.194Z,11.70
2023-01-02T21:49:47.150Z,11.60
2023-01-02T21:52:14.294Z,11.60
2023-01-02T21:54:41.161Z,11.60
2023-01-02T21:57:08.099Z,11.50
2023-01-02T21:59:35.055Z,11.60
2023-01-02T22:02:04.025Z,11.50
2023-01-02T22:04:34.017Z,11.50
2023-01-02T22:07:30.747Z,11.50
2023-01-02T22:09:53.456Z,11.50
2023-01-02T22:12:20.365Z,11.50
2023-01-02T22:14:47.297Z,11.50
2023-01-02T22:17:14.203Z,11.50
2023-01-02T22:19:41.497Z,11.50
2023-01-02T22:22:08.735Z,11.50
2023-01-02T22:24:42.375Z,11.50
2023-01-02T22:27:15.418Z,11.50
2023-01-02T22:32:32.993Z,11.50
2023-01-02T22:35:02.983Z,11.40
2023-01-02T22:37:30.011Z,11.40
2023-01-02T22:39:56.800Z,11.40
2023-01-02T22:43:04.380Z,11.40
2023-01-02T22:45:42.454Z,11.30
2023-01-02T22:48:17.839Z,11.30
2023-01-02T22:50:46.306Z,11.30
2023-01-02T22:53:27.584Z,11.30
2023-01-02T22:55:57.398Z,11.30
2023-01-02T22:58:25.100Z,11.30
2023-01-02T23:01:03.191Z,11.30
2023-01-02T23:03:40.599Z,11.20
2023-01-02T23:06:10.256Z,11.20
2023-01-02T23:08:39.450Z,11.10
2023-01-02T23:11:07.912Z,11.10
2023-01-02T23:13:35.705Z,11.10
2023-01-02T23:16:24.475Z,11.10
2023-01-02T23:19:12.493Z,11.10
2023-01-02T23:21:42.185Z,11.00
2023-01-02T23:24:12.929Z,11.00
2023-01-02T23:26:45.865Z,10.90
2023-01-02T23:29:13.539Z,10.90
2023-01-02T23:31:45.993Z,10.90
2023-01-02T23:34:14.808Z,11.00
2023-01-02T23:36:44.835Z,11.00
2023-01-02T23:39:19.501Z,11.00
2023-01-02T23:41:50.111Z,10.90
2023-01-02T23:44:18.007Z,10.90
2023-01-02T23:46:46.761Z,10.90
2023-01-02T23:49:15.001Z,10.90
2023-01-02T23:51:44.589Z,10.90
2023-01-02T23:54:15.718Z,10.80
2023-01-02T23:56:48.290Z,10.80
2023-01-02T23:59:21.227Z,10.90
